Flight Track Log - Related Links

Times and Time Zones

All times are in EDT time to prevent confusion due to time zone crossing. See the UAL1202 flight status page for this flight to view local times or setup timezone preferences in your user account.

Time Position Orientation Groundspeed Altitude Reporting Facility
EDT Latitude Longitude Course Direction KTS MPH feet Rate Location/Type
Wed 02:33:38 AM 33.8742 -118.5364 230° Southwest 247 284 4,800  Level Los Angeles Center
Wed 02:34:39 AM 33.8164 -118.5539 194° South 271 312 7,100 2,754 Climbing Los Angeles Center
Wed 02:35:40 AM 33.7258 -118.5283 167° South 281 323 10,400 2,579 Climbing Los Angeles Center
Wed 02:36:40 AM 33.6747 -118.4492 128° Southeast 329 379 12,300 2,083 Climbing Los Angeles Center
Wed 02:37:41 AM 33.6458 -118.3422 108° East 345 397 14,600 2,231 Climbing Los Angeles Center
Wed 02:38:41 AM 33.6436 -118.2186 91° East 381 438 16,800 2,231 Climbing Los Angeles Center
Wed 02:39:42 AM 33.6439 -118.0903 90° East 390 449 19,100 2,083 Climbing Los Angeles Center
Wed 02:40:42 AM 33.6442 -117.9569 90° East 400 460 21,000 1,835 Climbing Los Angeles Center
Wed 02:41:43 AM 33.6442 -117.8172 90° East 416 479 22,800 1,736 Climbing Los Angeles Center
Wed 02:42:43 AM 33.6436 -117.6744 90° East 429 494 24,500 1,686 Climbing Los Angeles Center
Wed 02:43:44 AM 33.6431 -117.5278 90° East 440 506 26,200 1,537 Climbing Los Angeles Center
Wed 02:44:44 AM 33.6417 -117.3781 91° East 448 516 27,600 1,289 Climbing Los Angeles Center
Wed 02:45:45 AM 33.6414 -117.2244 90° East 461 531 28,800 1,240 Climbing Los Angeles Center
Wed 02:46:45 AM 33.6381 -117.0339 91° East 476 548 30,100 1,091 Climbing Los Angeles Center
Wed 02:47:46 AM 33.6350 -116.8706 91° East 486 559 31,000 893 Climbing Los Angeles Center
Wed 02:48:46 AM 33.6367 -116.7072 89° East 489 563 31,900 942 Climbing Los Angeles Center
Wed 02:49:47 AM 33.6350 -116.5383 91° East 497 572 32,900 545 Climbing Los Angeles Center
Wed 02:50:47 AM 33.6356 -116.3700 90° East 500 575 33,000 50 Climbing Los Angeles Center
Wed 02:51:48 AM 33.6900 -116.2158 67° East 502 578 33,000 595 Level Los Angeles Center
Wed 02:52:48 AM 33.7519 -116.0589 65° Northeast 514 592 34,200 1,140 Climbing Los Angeles Center
Wed 02:53:49 AM 33.8125 -115.9053 65° Northeast 509 586 35,300 1,041 Climbing Los Angeles Center
Wed 02:54:49 AM 33.8733 -115.7533 64° Northeast 505 581 36,300 793 Climbing Los Angeles Center
Wed 02:55:50 AM 33.9331 -115.5997 65° Northeast 506 582 36,900 347 Climbing Los Angeles Center
Wed 02:56:50 AM 33.9928 -115.4481 65° Northeast 503 579 37,000 50 Climbing Los Angeles Center
Wed 02:57:51 AM 34.0514 -115.2969 65° Northeast 499 574 37,000 -50 Level Los Angeles Center
Wed 02:58:51 AM 34.1117 -115.1461 64° Northeast 498 573 36,900  Descending Los Angeles Center
Wed 02:59:52 AM 34.1697 -114.9972 65° Northeast 493 567 37,000  Climbing Los Angeles Center
Wed 03:00:52 AM 34.2278 -114.8467 65° Northeast 492 566 36,900  Descending Los Angeles Center
Wed 03:01:53 AM 34.2847 -114.6969 65° Northeast 493 567 37,000  Climbing Los Angeles Center
Wed 03:02:53 AM 34.3425 -114.5472 65° Northeast 492 566 36,900 -50 Descending Los Angeles Center
Wed 03:03:53 AM 34.3992 -114.3975 65° Northeast 489 563 36,900  Level Los Angeles Center
Wed 03:04:54 AM 34.4553 -114.2492 65° Northeast 487 560 36,900 50 Level Los Angeles Center
Wed 03:05:54 AM 34.5125 -114.0992 65° Northeast 489 563 37,000 57 Climbing Los Angeles Center
Wed 03:06:39 AM 34.5569 -113.9811 65° Northeast 490 564 37,000  Level Albuquerque Center
Wed 03:07:39 AM 34.6136 -113.8308 65° Northeast 491 565 37,000  Level Albuquerque Center
Wed 03:08:40 AM 34.6711 -113.6783 65° Northeast 495 570 37,000  Level Albuquerque Center
Wed 03:09:40 AM 34.7283 -113.5219 66° East 494 568 37,000  Level Albuquerque Center
Wed 03:10:40 AM 34.7836 -113.3711 66° East 493 567 37,000  Level Albuquerque Center
Wed 03:11:41 AM 34.8389 -113.2181 66° East 497 572 37,000  Level Albuquerque Center
Wed 03:12:41 AM 34.8947 -113.0672 66° East 496 571 37,000  Level Albuquerque Center
Wed 03:13:41 AM 34.9494 -112.9161 66° East 495 570 37,000  Level Albuquerque Center
Wed 03:14:42 AM 35.0036 -112.7653 66° East 495 570 37,000  Level Albuquerque Center
Wed 03:15:42 AM 35.0592 -112.6153 66° East 494 568 37,000  Level Albuquerque Center
Wed 03:16:42 AM 35.1128 -112.4639 67° East 494 568 37,000  Level Albuquerque Center
Wed 03:17:43 AM 35.1661 -112.3139 66° East 490 564 37,000  Level Albuquerque Center
Wed 03:18:43 AM 35.2303 -112.1325 67° East 491 565 37,000  Level Albuquerque Center
Wed 03:19:43 AM 35.2844 -111.9806 66° East 491 565 37,000  Level Albuquerque Center
Wed 03:20:44 AM 35.3386 -111.8275 67° East 494 568 37,000  Level Albuquerque Center
Wed 03:21:44 AM 35.3914 -111.6744 67° East 492 566 37,000  Level Albuquerque Center
Wed 03:22:44 AM 35.4442 -111.5217 67° East 491 565 37,000  Level Albuquerque Center
Wed 03:23:44 AM 35.5017 -111.3569 67° East 490 564 37,000  Level Albuquerque Center
Wed 03:24:45 AM 35.5533 -111.2097 67° East 490 564 37,000  Level Albuquerque Center
Wed 03:25:45 AM 35.6044 -111.0617 67° East 491 565 37,000  Level Albuquerque Center
Wed 03:26:45 AM 35.6544 -110.9122 68° East 493 567 37,000  Level Albuquerque Center
Wed 03:27:46 AM 35.7142 -110.7397 67° East 492 566 37,000  Level Albuquerque Center
Wed 03:28:46 AM 35.7633 -110.5939 67° East 485 558 37,000  Level Albuquerque Center
Wed 03:29:46 AM 35.8128 -110.4472 67° East 485 558 37,000  Level Albuquerque Center
Wed 03:30:46 AM 35.8697 -110.2758 68° East 485 558 37,000  Level Albuquerque Center
Wed 03:31:47 AM 35.9192 -110.1294 67° East 484 557 37,000  Level Albuquerque Center
Wed 03:32:47 AM 35.9683 -109.9822 68° East 484 557 37,000  Level Albuquerque Center
Wed 03:33:47 AM 36.0164 -109.8331 68° East 487 560 37,000  Level Albuquerque Center
Wed 03:34:48 AM 36.0725 -109.6611 68° East 484 557 37,000  Level Albuquerque Center
Wed 03:35:48 AM 36.1206 -109.5133 68° East 483 556 37,000  Level Albuquerque Center
Wed 03:36:52 AM 36.1764 -109.3417 68° East 483 556 37,000  Level Denver Center
Wed 03:37:53 AM 36.2250 -109.1922 68° East 483 556 37,000  Level Denver Center
Wed 03:38:53 AM 36.2739 -109.0419 68° East 486 559 37,000  Level Denver Center
Wed 03:39:54 AM 36.3231 -108.8886 68° East 491 565 37,000  Level Denver Center
Wed 03:40:54 AM 36.3803 -108.7081 68° East 497 572 37,000  Level Denver Center
Wed 03:41:55 AM 36.4286 -108.5539 69° East 497 572 37,000  Level Denver Center
Wed 03:42:55 AM 36.4769 -108.3989 69° East 500 575 37,000  Level Denver Center
Wed 03:43:55 AM 36.5239 -108.2453 69° East 498 573 37,000  Level Denver Center
Wed 03:44:56 AM 36.5783 -108.0683 69° East 492 566 37,000  Level Denver Center
Wed 03:45:56 AM 36.6250 -107.9181 69° East 488 562 37,000  Level Denver Center
Wed 03:46:57 AM 36.6711 -107.7681 69° East 485 558 37,000  Level Denver Center
Wed 03:47:57 AM 36.7244 -107.5947 69° East 481 554 37,000  Level Denver Center
Wed 03:48:58 AM 36.7689 -107.4464 69° East 479 551 37,000  Level Denver Center
Wed 03:49:58 AM 36.8144 -107.2967 69° East 482 555 37,000  Level Denver Center
Wed 03:50:59 AM 36.8586 -107.1481 70° East 479 551 37,000  Level Denver Center
Wed 03:51:59 AM 36.9114 -106.9736 69° East 480 552 37,000  Level Denver Center
Wed 03:53:00 AM 36.9547 -106.8228 70° East 480 552 37,000  Level Denver Center
Wed 03:54:00 AM 37.0014 -106.6744 68° East 479 551 37,000  Level Denver Center
Wed 03:55:00 AM 37.0511 -106.5000 70° East 477 549 37,000  Level Denver Center
Wed 03:56:01 AM 37.0953 -106.3525 69° East 475 547 37,000  Level Denver Center
Wed 03:57:01 AM 37.1372 -106.2044 70° East 471 542 37,000  Level Denver Center
Wed 03:58:02 AM 37.1867 -106.0286 71° East 479 551 37,000  Level Denver Center
Wed 03:59:02 AM 37.2311 -105.8783 70° East 481 554 37,000  Level Denver Center
Wed 04:00:03 AM 37.2789 -105.7119 70° East 478 550 37,000  Level Denver Center
Wed 04:01:03 AM 37.3144 -105.5769 72° East 479 551 37,000  Level Denver Center
Wed 04:02:04 AM 37.3639 -105.4017 70° East 477 549 37,000  Level Denver Center
Wed 04:03:04 AM 37.4042 -105.2603 70° East 477 549 37,000  Level Denver Center
Wed 04:04:04 AM 37.4533 -105.0831 71° East 480 552 37,000  Level Denver Center
Wed 04:05:05 AM 37.4958 -104.9342 70° East 474 545 37,000  Level Denver Center
Wed 04:06:05 AM 37.5372 -104.7819 71° East 478 550 37,000  Level Denver Center
Wed 04:07:06 AM 37.5869 -104.5997 71° East 490 564 37,000  Level Denver Center
Wed 04:08:06 AM 37.6292 -104.4458 71° East 485 558 37,000  Level Denver Center
Wed 04:09:07 AM 37.6714 -104.2869 71° East 493 567 37,000  Level Denver Center
Wed 04:10:07 AM 37.7158 -104.1281 70° East 496 571 37,000  Level Denver Center
Wed 04:11:08 AM 37.7658 -103.9389 71° East 500 575 37,000  Level Denver Center
Wed 04:12:20 AM 37.8083 -103.7769 72° East 501 577 37,000  Level Denver Center
Wed 04:13:20 AM 37.8572 -103.5903 72° East 498 573 37,000  Level Denver Center
Wed 04:14:21 AM 37.9056 -103.4033 72° East 499 574 37,000  Level Denver Center
Wed 04:15:21 AM 37.9472 -103.2428 72° East 500 575 37,000  Level Denver Center
Wed 04:16:22 AM 37.9881 -103.0828 72° East 499 574 37,000  Level Denver Center
Wed 04:17:22 AM 38.0286 -102.9231 72° East 498 573 37,000  Level Denver Center
Wed 04:18:22 AM 38.0769 -102.7383 72° East 495 570 37,000  Level Denver Center
Wed 04:19:23 AM 38.1150 -102.5803 73° East 491 565 37,000  Level Denver Center
Wed 04:20:23 AM 38.1547 -102.4211 72° East 492 566 37,000  Level Denver Center
Wed 04:21:24 AM 38.2008 -102.2369 72° East 491 565 37,000  Level Denver Center
Wed 04:22:24 AM 38.2408 -102.0775 72° East 492 566 37,000  Level Denver Center
Wed 04:23:25 AM 38.2800 -101.9181 73° East 492 566 37,000  Level Denver Center
Wed 04:24:25 AM 38.3189 -101.7589 73° East 492 566 37,000  Level Denver Center
Wed 04:25:25 AM 38.3644 -101.5722 73° East 492 566 37,000  Level Denver Center
Wed 04:26:26 AM 38.4025 -101.4111 73° East 495 570 37,000  Level Denver Center
Wed 04:27:26 AM 38.4411 -101.2489 73° East 498 573 37,000  Level Denver Center
Wed 04:28:27 AM 38.4869 -101.0603 73° East 498 573 37,000  Level Denver Center
Wed 04:29:27 AM 38.5253 -100.8961 73° East 502 578 37,000  Level Denver Center
Wed 04:29:58 AM 38.5450 -100.8114 73° East 502 578 37,000  Level Kansas City Center
Wed 04:30:58 AM 38.5828 -100.6456 74° East 504 580 37,000  Level Kansas City Center
Wed 04:31:28 AM 38.6017 -100.5658 73° East 506 582 37,000  Level Denver Center
Wed 04:32:28 AM 38.6467 -100.3714 73° East 510 587 37,000  Level Denver Center
Wed 04:33:28 AM 38.6844 -100.2058 74° East 506 582 37,000  Level Denver Center
Wed 04:34:02 AM 38.7028 -100.1203 75° East 506 582 37,000  Level Kansas City Center
Wed 04:35:03 AM 38.7408 -99.9558 73° East 504 580 37,000  Level Kansas City Center
Wed 04:36:03 AM 38.7828 -99.7631 74° East 504 580 37,000  Level Kansas City Center
Wed 04:37:04 AM 38.8200 -99.5994 74° East 500 575 37,000  Level Kansas City Center
Wed 04:38:02 AM 38.8600 -99.4161 74° East 502 578 37,000  Level Kansas City Center
Wed 04:39:03 AM 38.8981 -99.2433 74° East 503 579 37,000  Level Kansas City Center
Wed 04:40:06 AM 38.9364 -99.0686 74° East 506 582 37,000  Level Kansas City Center
Wed 04:41:07 AM 38.9736 -98.8958 74° East 502 578 37,000  Level Kansas City Center
Wed 04:42:08 AM 39.0103 -98.7239 75° East 499 574 37,000  Level Kansas City Center
Wed 04:43:06 AM 39.0472 -98.5511 75° East 500 575 37,000  Level Kansas City Center
Wed 04:44:07 AM 39.0825 -98.3797 75° East 496 571 37,000  Level Kansas City Center
Wed 04:45:08 AM 39.1194 -98.2067 75° East 498 573 37,000  Level Kansas City Center
Wed 04:46:10 AM 39.1542 -98.0333 75° East 498 573 37,000  Level Kansas City Center
Wed 04:47:11 AM 39.1939 -97.8489 74° East 500 575 37,000  Level Kansas City Center
Wed 04:48:12 AM 39.2264 -97.6919 75° East 504 580 37,000  Level Kansas City Center
Wed 04:49:12 AM 39.2650 -97.4961 76° East 507 583 37,000  Level Kansas City Center
Wed 04:50:13 AM 39.2983 -97.3297 75° East 502 578 37,000  Level Kansas City Center
Wed 04:51:14 AM 39.3317 -97.1606 76° East 505 581 37,000  Level Kansas City Center
Wed 04:52:15 AM 39.3692 -96.9650 76° East 504 580 37,000  Level Kansas City Center
Wed 04:53:15 AM 39.4019 -96.7975 76° East 502 578 37,000  Level Kansas City Center
Wed 04:54:14 AM 39.4361 -96.6308 75° East 502 578 37,000  Level Kansas City Center
Wed 04:55:16 AM 39.4692 -96.4597 76° East 501 577 37,000  Level Kansas City Center
Wed 04:56:15 AM 39.5025 -96.2836 76° East 502 578 37,000  Level Kansas City Center
Wed 04:57:17 AM 39.5364 -96.0978 77° East 504 580 37,000  Level Kansas City Center
Wed 04:58:19 AM 39.5722 -95.9036 76° East 494 568 37,000  Level Kansas City Center
Wed 04:59:18 AM 39.6031 -95.7386 76° East 491 565 37,000  Level Kansas City Center
Wed 05:00:19 AM 39.6336 -95.5731 76° East 491 565 37,000  Level Kansas City Center
Wed 05:01:21 AM 39.6644 -95.4083 76° East 488 562 37,000  Level Kansas City Center
Wed 05:02:20 AM 39.6989 -95.2139 77° East 490 564 37,000  Level Kansas City Center
Wed 05:03:21 AM 39.7286 -95.0472 77° East 492 566 37,000  Level Kansas City Center
Wed 05:04:24 AM 39.7575 -94.8806 77° East 491 565 37,000  Level Kansas City Center
Wed 05:05:24 AM 39.7919 -94.6867 77° East 492 566 37,000  Level Kansas City Center
Wed 05:06:25 AM 39.8214 -94.5178 77° East 492 566 37,000  Level Kansas City Center
Wed 05:07:26 AM 39.8500 -94.3528 77° East 494 568 37,000  Level Kansas City Center
Wed 05:08:27 AM 39.8828 -94.1581 78° East 494 568 37,000  Level Kansas City Center
Wed 05:09:27 AM 39.9097 -93.9892 78° East 498 573 37,000  Level Kansas City Center
Wed 05:10:28 AM 39.9375 -93.8178 78° East 492 566 37,000  Level Kansas City Center
Wed 05:11:29 AM 39.9717 -93.6486 75° East 489 563 37,000  Level Kansas City Center
Wed 05:12:30 AM 40.0183 -93.4861 69° East 485 558 37,000  Level Kansas City Center
Wed 05:13:30 AM 40.0617 -93.3208 71° East 485 558 37,000  Level Kansas City Center
Wed 05:14:31 AM 40.1058 -93.1567 71° East 483 556 37,000  Level Kansas City Center
Wed 05:15:32 AM 40.1547 -92.9708 71° East 484 557 37,000  Level Kansas City Center
Wed 05:16:32 AM 40.1967 -92.8097 71° East 487 560 37,000  Level Kansas City Center
Wed 05:17:33 AM 40.2378 -92.6500 71° East 486 559 37,000  Level Kansas City Center
Wed 05:18:31 AM 40.2889 -92.4644 70° East 486 559 37,000  Level Kansas City Center
Wed 05:19:34 AM 40.3272 -92.3064 72° East 494 568 37,000  Level Kansas City Center
Wed 05:20:35 AM 40.3694 -92.1411 71° East 489 563 37,000  Level Kansas City Center
Wed 05:21:36 AM 40.4108 -91.9761 72° East 482 555 37,000  Level Kansas City Center
Wed 05:22:35 AM 40.4522 -91.8100 72° East 482 555 37,000  Level Kansas City Center
Wed 05:23:37 AM 40.4944 -91.6422 72° East 486 559 37,000  Level Kansas City Center
Wed 05:24:10 AM 40.5275 -91.5081 72° East 489 563 37,000  Level Chicago Center
Wed 05:25:10 AM 40.5731 -91.3411 70° East 490 564 37,000  Level Chicago Center
Wed 05:25:38 AM 40.5956 -91.2764 65° Northeast 487 560 37,000  Level Kansas City Center
Wed 05:26:38 AM 40.6472 -91.1325 65° Northeast 487 560 37,000  Level Kansas City Center
Wed 05:27:11 AM 40.6800 -91.0350 66° East 488 562 37,000 -128 Level Chicago Center
Wed 05:28:12 AM 40.7344 -90.8731 66° East 485 558 36,800 -595 Descending Chicago Center
Wed 05:29:12 AM 40.7903 -90.7100 66° East 485 558 35,800 -992 Descending Chicago Center
Wed 05:30:13 AM 40.8450 -90.5467 66° East 485 558 34,800 -893 Descending Chicago Center
Wed 05:31:13 AM 40.9011 -90.3803 66° East 492 566 34,000 -893 Descending Chicago Center
Wed 05:32:14 AM 40.9600 -90.2050 66° East 487 560 33,000 -1,736 Descending Chicago Center
Wed 05:33:14 AM 41.0106 -90.0500 67° East 484 557 30,500 -2,380 Descending Chicago Center
Wed 05:34:15 AM 41.0631 -89.8878 67° East 476 548 28,200 -2,281 Descending Chicago Center
Wed 05:35:15 AM 41.1147 -89.7300 66° East 461 531 25,900 -2,182 Descending Chicago Center
Wed 05:36:16 AM 41.1642 -89.5781 67° East 457 526 23,800 -1,438 Descending Chicago Center
Wed 05:37:16 AM 41.2206 -89.4394 62° Northeast 433 498 23,000 -397 Descending Chicago Center
Wed 05:38:17 AM 41.2756 -89.3036 62° Northeast 415 478 23,000 -843 Level Chicago Center
Wed 05:39:17 AM 41.3286 -89.1678 62° Northeast 420 483 21,300 -2,387 Descending Chicago Center
Wed 05:41:18 AM 41.4503 -88.8631 62° Northeast 422 486 15,800 -2,571 Descending Chicago Center
Wed 05:42:19 AM 41.5031 -88.7289 62° Northeast 410 472 13,500 -2,182 Descending Chicago Center
Wed 05:43:19 AM 41.5589 -88.6022 59° Northeast 397 457 11,400 -1,240 Descending Chicago Center
Wed 05:44:20 AM 41.6186 -88.4967 53° Northeast 356 410 11,000 -246 Descending Chicago Center
Wed 05:45:21 AM 41.6750 -88.3953 53° Northeast 339 390 10,900 -446 Descending Chicago Center
Wed 05:46:21 AM 41.7281 -88.2997 53° Northeast 320 368 10,100 -1,250 Descending Chicago Center
Wed 05:47:21 AM 41.7889 -88.2247 43° Northeast 298 343 8,400 -1,537 Descending Chicago Center
Wed 05:48:22 AM 41.8661 -88.1839 21° North 299 344 7,000 -694 Descending Chicago Center
Wed 05:49:22 AM 41.9411 -88.1442 22° Northeast 291 335 7,000 -793 Level Chicago Center
Wed 05:50:23 AM 42.0214 -88.1444 360° North 290 334 5,400 -1,388 Descending Chicago Center
Wed 05:51:23 AM 42.0958 -88.1742 343° North 281 323 4,200 -694 Descending Chicago Center
Wed 05:52:24 AM 42.1397 -88.1233 41° Northeast 249 287 4,000 -197 Descending Chicago Center

Login

Don't have an account? Register now (free) for customized features, flight alerts, and more!